Time;durP1;ratioP1;P1;durP2;ratioP2;P2;SDS_P1;SDS_P2;PMS_P1;PMS_P2;Temp;Humidity;BMP_temperature;BMP_pressure;BME280_temperature;BME280_humidity;BME280_pressure;Samples;Min_cycle;Max_cycle;Signal;HPM_P1;HPM_P2
2023/06/10 00:01:55;;;;;;;39.67;23.63;;;27.90;99.90;;;;;;5055012;28;20108;-72
2023/06/10 00:04:22;;;;;;;43.45;24.10;;;27.90;99.90;;;;;;5054874;28;20060;-72
2023/06/10 00:06:49;;;;;;;42.45;23.95;;;27.90;99.90;;;;;;5049094;28;20033;-72
2023/06/10 00:09:18;;;;;;;36.58;24.58;;;27.70;99.90;;;;;;5038629;28;20017;-72
2023/06/10 00:11:45;;;;;;;41.47;26.23;;;27.70;99.90;;;;;;5035232;28;20120;-72
2023/06/10 00:14:11;;;;;;;42.10;28.75;;;27.70;99.90;;;;;;5035412;28;20096;-73
2023/06/10 00:16:38;;;;;;;42.85;24.58;;;28.00;99.90;;;;;;5035084;28;20030;-76
2023/06/10 00:19:05;;;;;;;44.35;25.75;;;27.70;99.90;;;;;;5033083;28;20026;-76
2023/06/10 00:24:05;;;;;;;33.97;24.85;;;28.00;99.90;;;;;;5034522;28;20018;-77
2023/06/10 00:26:32;;;;;;;33.35;23.52;;;27.90;99.90;;;;;;5034922;28;20029;-76
2023/06/10 00:28:59;;;;;;;39.92;23.25;;;28.20;99.90;;;;;;5035123;28;20021;-73
2023/06/10 00:31:26;;;;;;;37.72;26.23;;;28.20;99.90;;;;;;5034531;28;20017;-70
2023/06/10 00:33:53;;;;;;;68.95;51.53;;;28.10;99.90;;;;;;5034555;28;20013;-69
2023/06/10 00:36:20;;;;;;;43.65;24.80;;;28.30;99.90;;;;;;5034825;28;20026;-71
2023/06/10 00:38:47;;;;;;;49.42;32.42;;;28.30;99.90;;;;;;5034578;28;20462;-72
2023/06/10 00:41:15;;;;;;;36.75;23.13;;;28.40;99.90;;;;;;5035035;28;20021;-74
2023/06/10 00:43:41;;;;;;;31.30;22.00;;;28.60;99.90;;;;;;5034793;28;20108;-74
2023/06/10 00:46:08;;;;;;;34.05;22.02;;;28.40;99.90;;;;;;5034206;28;20382;-74
2023/06/10 00:48:35;;;;;;;31.45;20.25;;;28.50;99.90;;;;;;5033277;28;20014;-77
2023/06/10 00:51:03;;;;;;;34.42;21.90;;;28.40;99.90;;;;;;5034304;28;20091;-71
2023/06/10 00:53:29;;;;;;;33.80;20.55;;;28.50;99.90;;;;;;5034277;28;20018;-72
2023/06/10 00:55:56;;;;;;;27.92;17.58;;;28.50;99.90;;;;;;5034278;28;20017;-74
2023/06/10 00:58:25;;;;;;;42.28;29.17;;;28.60;99.90;;;;;;5034551;28;20026;-76
2023/06/10 01:00:53;;;;;;;49.72;34.22;;;28.50;99.90;;;;;;5036971;28;20025;-72
2023/06/10 01:03:20;;;;;;;77.80;56.13;;;28.50;99.90;;;;;;5043315;28;20061;-72
2023/06/10 01:05:56;;;;;;;32.53;20.50;;;28.70;99.90;;;;;;5034002;28;20026;-72
2023/06/10 01:08:25;;;;;;;57.33;38.88;;;28.70;99.90;;;;;;5037479;28;20087;-69
2023/06/10 01:10:58;;;;;;;93.03;69.78;;;28.80;99.90;;;;;;5040875;28;20030;-71
2023/06/10 01:13:29;;;;;;;56.15;36.20;;;28.90;99.90;;;;;;5033868;28;20497;-70
2023/06/10 01:15:57;;;;;;;37.80;23.75;;;29.00;99.90;;;;;;5033724;28;20052;-73
2023/06/10 01:18:30;;;;;;;34.85;23.90;;;29.00;99.90;;;;;;5034008;28;20457;-73
2023/06/10 01:20:57;;;;;;;46.53;25.58;;;28.80;99.90;;;;;;5033903;28;20068;-77
2023/06/10 01:23:24;;;;;;;42.72;24.75;;;28.90;99.90;;;;;;5033745;28;20032;-78
2023/06/10 01:25:55;;;;;;;39.90;24.48;;;29.00;99.90;;;;;;5040349;28;20021;-73
2023/06/10 01:28:24;;;;;;;40.43;23.77;;;29.00;99.90;;;;;;5042810;28;20086;-74
2023/06/10 01:31:00;;;;;;;64.85;38.10;;;29.20;99.90;;;;;;5041546;28;20025;-73
2023/06/10 01:33:31;;;;;;;46.53;29.77;;;29.20;99.90;;;;;;5042869;28;20021;-72
2023/06/10 01:36:00;;;;;;;41.17;26.42;;;29.30;99.90;;;;;;5042749;28;20029;-72
2023/06/10 01:38:31;;;;;;;44.83;29.63;;;29.20;99.90;;;;;;5043830;28;20466;-74
2023/06/10 01:40:58;;;;;;;38.53;26.30;;;29.30;99.90;;;;;;5042972;28;20036;-71
2023/06/10 01:43:25;;;;;;;40.35;21.42;;;29.50;99.90;;;;;;5042121;28;20177;-71
2023/06/10 01:45:52;;;;;;;35.80;21.65;;;29.40;99.90;;;;;;5042506;28;20525;-67
2023/06/10 01:48:19;;;;;;;32.10;20.25;;;29.40;99.90;;;;;;5043892;28;20104;-72
2023/06/10 01:50:45;;;;;;;30.13;19.48;;;29.30;99.90;;;;;;5041982;28;20022;-68
2023/06/10 01:53:12;;;;;;;38.63;27.75;;;29.40;99.90;;;;;;5050217;28;20025;-72
2023/06/10 01:55:39;;;;;;;36.45;23.30;;;29.70;99.90;;;;;;5053299;28;20071;-71
2023/06/10 01:58:05;;;;;;;32.42;19.35;;;29.70;99.90;;;;;;5052955;28;20020;-72
2023/06/10 02:00:32;;;;;;;31.58;18.33;;;29.80;99.90;;;;;;5055731;28;20021;-72
2023/06/10 02:02:59;;;;;;;30.65;17.60;;;30.00;99.90;;;;;;5057768;28;20112;-72
2023/06/10 02:05:26;;;;;;;28.50;17.75;;;30.10;99.90;;;;;;5056901;28;20389;-71
2023/06/10 02:07:52;;;;;;;23.70;14.00;;;30.20;99.90;;;;;;5057293;28;20498;-71
2023/06/10 02:10:19;;;;;;;15.85;10.48;;;30.10;99.90;;;;;;5057457;28;20032;-72
2023/06/10 02:12:46;;;;;;;20.30;10.02;;;30.20;99.90;;;;;;5056971;28;20075;-71
2023/06/10 02:15:13;;;;;;;17.42;10.63;;;30.40;99.90;;;;;;5057127;28;20100;-69
2023/06/10 02:17:40;;;;;;;21.17;11.82;;;30.40;99.90;;;;;;5056826;28;20044;-70
2023/06/10 02:20:10;;;;;;;19.20;13.68;;;30.50;99.90;;;;;;5054315;28;20109;-68
2023/06/10 02:22:37;;;;;;;20.15;12.18;;;30.60;99.90;;;;;;5048492;28;20029;-68
2023/06/10 02:25:05;;;;;;;17.50;10.30;;;30.50;99.90;;;;;;5057236;28;20018;-68
2023/06/10 02:27:32;;;;;;;20.80;11.73;;;30.40;99.90;;;;;;5057180;28;20473;-67
2023/06/10 02:29:59;;;;;;;15.18;10.77;;;30.40;99.90;;;;;;5056604;28;20032;-66
2023/06/10 02:32:25;;;;;;;22.48;13.00;;;30.60;99.90;;;;;;5056751;28;20024;-71
2023/06/10 02:34:53;;;;;;;27.65;17.95;;;30.60;99.90;;;;;;5056664;28;20492;-72
2023/06/10 02:37:20;;;;;;;35.10;21.98;;;30.60;99.90;;;;;;5048414;28;20035;-71
2023/06/10 02:39:47;;;;;;;31.45;18.10;;;30.50;99.90;;;;;;5053802;28;20370;-71
2023/06/10 02:42:14;;;;;;;23.85;13.25;;;30.50;99.90;;;;;;5056606;28;20432;-73
2023/06/10 02:44:40;;;;;;;22.65;12.77;;;30.70;99.90;;;;;;5056876;28;20041;-71
2023/06/10 02:47:07;;;;;;;20.85;10.93;;;30.80;99.90;;;;;;5056488;28;20024;-71
2023/06/10 02:49:34;;;;;;;20.20;10.75;;;30.80;99.90;;;;;;5056446;28;20029;-70
2023/06/10 02:52:01;;;;;;;18.77;10.90;;;30.80;99.90;;;;;;5050434;28;20120;-71
2023/06/10 02:54:27;;;;;;;19.27;10.63;;;30.80;99.90;;;;;;5045471;28;20033;-71
2023/06/10 02:56:55;;;;;;;23.10;10.60;;;30.80;99.90;;;;;;5036793;28;20021;-70
2023/06/10 02:59:22;;;;;;;22.10;11.82;;;30.90;99.90;;;;;;5036185;28;20466;-70
2023/06/10 03:01:49;;;;;;;21.08;11.20;;;31.10;99.90;;;;;;5045790;28;20497;-71
2023/06/10 03:04:16;;;;;;;19.23;11.05;;;31.20;99.90;;;;;;5037562;28;20033;-70
2023/06/10 03:06:42;;;;;;;16.63;11.07;;;31.20;99.90;;;;;;5035927;28;20109;-69
2023/06/10 03:09:10;;;;;;;18.02;10.93;;;31.20;99.90;;;;;;5036131;28;20017;-70
2023/06/10 03:11:37;;;;;;;14.48;9.80;;;31.20;99.90;;;;;;5034850;28;20467;-70
2023/06/10 03:14:03;;;;;;;21.27;10.90;;;31.30;99.90;;;;;;5035830;28;20017;-71
2023/06/10 03:16:31;;;;;;;20.83;14.52;;;31.30;99.90;;;;;;5035949;28;20041;-69
2023/06/10 03:18:57;;;;;;;20.70;12.68;;;31.40;99.90;;;;;;5036373;28;20518;-70
2023/06/10 03:21:24;;;;;;;17.73;11.25;;;31.30;99.90;;;;;;5036094;28;20024;-71
2023/06/10 03:23:51;;;;;;;28.80;12.95;;;31.30;99.90;;;;;;5044674;28;20430;-71
2023/06/10 03:26:21;;;;;;;20.27;12.77;;;31.40;99.90;;;;;;5038743;28;20021;-70
2023/06/10 03:28:48;;;;;;;18.67;11.63;;;31.60;99.90;;;;;;5035315;28;20025;-69
2023/06/10 03:31:16;;;;;;;19.70;14.93;;;31.60;99.90;;;;;;5035565;28;20017;-69
2023/06/10 03:33:43;;;;;;;24.10;14.70;;;31.70;99.90;;;;;;5035937;28;20087;-68
2023/06/10 03:36:10;;;;;;;20.48;14.15;;;31.60;99.90;;;;;;5035415;28;20021;-68
2023/06/10 03:38:37;;;;;;;19.98;12.63;;;31.60;99.90;;;;;;5035449;28;20025;-68
2023/06/10 03:41:03;;;;;;;18.23;13.40;;;31.80;99.90;;;;;;5035454;28;20082;-68
2023/06/10 03:43:31;;;;;;;21.30;16.15;;;31.80;99.90;;;;;;5035661;28;20486;-69
2023/06/10 03:45:57;;;;;;;25.58;17.73;;;31.80;99.90;;;;;;5035735;28;20033;-70
2023/06/10 03:48:24;;;;;;;39.85;26.38;;;31.80;99.90;;;;;;5035491;28;20021;-68
2023/06/10 03:50:52;;;;;;;41.53;27.85;;;31.80;99.90;;;;;;5035580;28;20101;-71
2023/06/10 03:53:18;;;;;;;34.90;26.85;;;31.80;99.90;;;;;;5035914;28;20040;-71
2023/06/10 03:55:45;;;;;;;32.83;23.08;;;31.80;99.90;;;;;;5041523;28;20029;-69
2023/06/10 03:58:14;;;;;;;35.00;25.63;;;31.80;99.90;;;;;;5044265;28;20009;-68
2023/06/10 04:00:41;;;;;;;33.42;24.83;;;31.80;99.90;;;;;;5042671;28;20053;-68
2023/06/10 04:03:14;;;;;;;44.65;30.95;;;31.80;99.90;;;;;;5037802;28;20030;-68
2023/06/10 04:05:41;;;;;;;40.28;27.23;;;32.00;99.90;;;;;;5043872;28;20025;-68
2023/06/10 04:08:09;;;;;;;61.67;37.10;;;32.00;99.90;;;;;;5043245;28;20035;-69
2023/06/10 04:10:35;;;;;;;63.35;39.80;;;32.10;99.90;;;;;;5043680;28;20185;-69
2023/06/10 04:13:03;;;;;;;46.88;32.38;;;32.10;99.90;;;;;;5044796;28;20098;-68
2023/06/10 04:15:32;;;;;;;36.47;22.63;;;32.20;99.90;;;;;;5041151;28;20026;-70
2023/06/10 04:18:00;;;;;;;28.58;18.30;;;32.20;99.90;;;;;;5047112;28;20021;-70
2023/06/10 04:20:27;;;;;;;21.30;14.73;;;32.20;99.90;;;;;;5047286;28;20485;-69
2023/06/10 04:22:54;;;;;;;27.92;16.80;;;32.40;99.90;;;;;;5046415;28;20460;-68
2023/06/10 04:25:20;;;;;;;28.17;18.63;;;32.30;99.90;;;;;;5047054;28;20028;-68
2023/06/10 04:27:47;;;;;;;19.13;13.35;;;32.40;99.90;;;;;;5047149;28;20468;-67
2023/06/10 04:30:15;;;;;;;16.20;9.88;;;32.40;99.90;;;;;;5044868;28;20155;-69
2023/06/10 04:32:42;;;;;;;14.02;8.88;;;32.40;99.90;;;;;;5044040;28;20025;-68
2023/06/10 04:35:11;;;;;;;19.90;11.35;;;32.40;99.90;;;;;;5042676;28;20389;-68
2023/06/10 04:37:38;;;;;;;24.23;13.93;;;32.40;99.90;;;;;;5043359;28;20044;-69
2023/06/10 04:40:06;;;;;;;30.38;19.85;;;32.40;99.90;;;;;;5043401;28;20467;-71
2023/06/10 04:42:32;;;;;;;43.35;32.58;;;32.50;99.90;;;;;;5045337;28;20025;-69
2023/06/10 04:44:59;;;;;;;32.42;23.80;;;32.60;99.90;;;;;;5043757;28;20520;-69
2023/06/10 04:47:26;;;;;;;29.65;21.48;;;32.60;99.90;;;;;;5042607;28;20079;-68
2023/06/10 04:49:53;;;;;;;37.20;23.95;;;32.60;99.90;;;;;;5045086;28;20021;-68
2023/06/10 04:52:20;;;;;;;20.25;15.02;;;32.60;99.90;;;;;;5043101;28;20032;-70
2023/06/10 04:54:48;;;;;;;23.58;14.77;;;32.60;99.90;;;;;;5043017;28;20049;-68
2023/06/10 04:57:15;;;;;;;23.33;17.15;;;32.60;99.90;;;;;;5044669;28;20028;-67
2023/06/10 04:59:41;;;;;;;27.08;17.58;;;32.60;99.90;;;;;;5043268;28;20030;-68
2023/06/10 05:02:08;;;;;;;22.77;14.70;;;32.70;99.90;;;;;;5040438;28;20025;-67
2023/06/10 05:04:35;;;;;;;25.27;12.63;;;32.70;99.90;;;;;;5044560;28;20024;-68
2023/06/10 05:07:02;;;;;;;18.38;11.40;;;32.80;99.90;;;;;;5043348;28;20565;-68
2023/06/10 05:09:28;;;;;;;12.88;8.35;;;32.80;99.90;;;;;;5042896;28;20028;-69
2023/06/10 05:11:55;;;;;;;15.52;9.00;;;32.80;99.90;;;;;;5043408;28;20027;-67
2023/06/10 05:14:22;;;;;;;14.52;9.60;;;32.80;99.90;;;;;;5043305;28;20045;-67
2023/06/10 05:16:49;;;;;;;14.52;7.95;;;32.80;99.90;;;;;;5042581;28;20041;-68
2023/06/10 05:19:16;;;;;;;14.52;7.75;;;32.80;99.90;;;;;;5042604;28;20013;-69
2023/06/10 05:21:44;;;;;;;15.20;8.85;;;32.90;99.90;;;;;;5042306;28;20536;-67
2023/06/10 05:24:10;;;;;;;18.98;11.65;;;33.00;99.90;;;;;;5043829;28;20983;-67
2023/06/10 05:26:38;;;;;;;20.20;13.75;;;32.90;99.90;;;;;;5041884;28;20013;-68
2023/06/10 05:29:05;;;;;;;21.80;14.20;;;33.10;99.90;;;;;;5043104;28;20047;-68
2023/06/10 05:31:32;;;;;;;20.67;14.98;;;33.20;99.90;;;;;;5043814;28;20052;-69
2023/06/10 05:33:59;;;;;;;16.05;10.57;;;33.10;99.90;;;;;;5041513;28;20044;-67
2023/06/10 05:36:26;;;;;;;16.98;9.40;;;33.10;99.90;;;;;;5042232;28;20370;-68
2023/06/10 05:38:53;;;;;;;13.55;8.25;;;33.10;99.90;;;;;;5044109;28;20017;-68
2023/06/10 05:41:20;;;;;;;11.77;8.85;;;33.20;99.90;;;;;;5042799;28;20025;-67
2023/06/10 05:43:47;;;;;;;19.65;9.75;;;33.20;99.90;;;;;;5039832;28;20025;-68
2023/06/10 05:46:14;;;;;;;26.17;13.45;;;33.20;99.90;;;;;;5043499;28;20018;-67
2023/06/10 05:48:40;;;;;;;16.98;11.70;;;33.20;99.90;;;;;;5043730;28;20048;-67
2023/06/10 05:51:07;;;;;;;13.73;9.52;;;33.10;99.90;;;;;;5044110;28;20381;-67
2023/06/10 05:53:34;;;;;;;17.83;9.98;;;33.10;99.90;;;;;;5042452;28;20033;-66
2023/06/10 05:56:01;;;;;;;15.45;7.82;;;33.20;99.90;;;;;;5043846;28;20028;-68
2023/06/10 05:58:27;;;;;;;12.38;6.07;;;33.20;99.90;;;;;;5044247;28;20549;-70
2023/06/10 06:00:54;;;;;;;39.08;31.10;;;33.30;99.90;;;;;;5042734;28;20044;-67
2023/06/10 06:03:21;;;;;;;16.00;11.43;;;33.40;99.90;;;;;;5043612;28;20105;-65
2023/06/10 06:05:48;;;;;;;12.20;7.05;;;33.50;99.90;;;;;;5043829;28;20025;-67
2023/06/10 06:08:18;;;;;;;19.17;11.00;;;33.60;99.90;;;;;;5042222;28;20041;-67
2023/06/10 06:10:48;;;;;;;25.00;18.15;;;33.60;99.90;;;;;;5041593;28;20500;-67
2023/06/10 06:13:15;;;;;;;11.77;9.20;;;33.80;99.90;;;;;;5043970;28;20075;-66
2023/06/10 06:15:42;;;;;;;16.48;8.95;;;33.80;99.90;;;;;;5042041;28;22908;-66
2023/06/10 06:18:08;;;;;;;48.95;35.70;;;33.90;99.90;;;;;;5041384;28;20053;-67
2023/06/10 06:20:35;;;;;;;13.48;8.57;;;33.90;99.90;;;;;;5036334;28;20022;-66
2023/06/10 06:23:02;;;;;;;13.85;8.02;;;34.00;99.90;;;;;;5033561;28;20433;-66
2023/06/10 06:25:28;;;;;;;9.32;4.78;;;34.10;99.90;;;;;;5034285;28;20018;-68
2023/06/10 06:27:55;;;;;;;11.80;4.22;;;34.00;99.90;;;;;;5034014;28;20483;-68
2023/06/10 06:30:22;;;;;;;7.85;5.40;;;33.90;99.90;;;;;;5034346;28;20496;-67
2023/06/10 06:32:49;;;;;;;7.63;4.32;;;34.00;99.90;;;;;;5044739;28;20029;-68
2023/06/10 06:35:16;;;;;;;12.82;7.43;;;34.20;99.90;;;;;;5034185;28;20018;-72
2023/06/10 06:37:42;;;;;;;13.05;9.05;;;34.10;99.90;;;;;;5034032;28;20386;-72
2023/06/10 06:40:09;;;;;;;12.77;7.40;;;34.10;99.90;;;;;;5033850;28;20432;-71
2023/06/10 06:42:36;;;;;;;15.93;10.25;;;34.00;99.90;;;;;;5033687;28;20052;-66
2023/06/10 06:45:03;;;;;;;19.35;13.52;;;34.20;99.90;;;;;;5033514;28;20032;-67
2023/06/10 06:47:30;;;;;;;10.70;5.47;;;34.20;99.90;;;;;;5036978;28;20021;-67
2023/06/10 06:49:56;;;;;;;9.77;5.53;;;34.20;99.90;;;;;;5035778;28;20449;-67
2023/06/10 06:52:23;;;;;;;9.85;5.53;;;34.30;99.90;;;;;;5037349;28;20109;-66
2023/06/10 06:54:50;;;;;;;9.50;5.47;;;34.40;99.90;;;;;;5037075;28;20120;-67
2023/06/10 06:57:17;;;;;;;9.35;3.92;;;34.50;99.90;;;;;;5041731;28;20040;-66
2023/06/10 06:59:43;;;;;;;7.25;3.53;;;34.50;99.90;;;;;;5052099;28;20056;-66
2023/06/10 07:02:11;;;;;;;9.38;4.07;;;34.50;99.90;;;;;;5056223;28;20096;-67
2023/06/10 07:04:39;;;;;;;4.82;3.38;;;34.60;99.90;;;;;;5055665;28;20044;-68
2023/06/10 07:07:09;;;;;;;7.10;3.97;;;34.60;99.90;;;;;;5047803;28;20091;-67
2023/06/10 07:09:35;;;;;;;4.90;3.58;;;34.60;99.90;;;;;;5036323;28;20026;-67
2023/06/10 07:12:02;;;;;;;9.32;3.30;;;34.60;99.90;;;;;;5035228;28;20387;-69
2023/06/10 07:14:29;;;;;;;5.13;3.42;;;34.70;99.90;;;;;;5036035;28;20053;-69
2023/06/10 07:16:56;;;;;;;6.75;3.58;;;34.70;99.90;;;;;;5035723;28;20056;-67
2023/06/10 07:19:23;;;;;;;5.15;3.72;;;34.70;99.90;;;;;;5036025;28;20021;-67
2023/06/10 07:21:49;;;;;;;8.32;4.97;;;34.80;99.90;;;;;;5035776;28;20085;-67
2023/06/10 07:24:16;;;;;;;7.85;3.47;;;34.80;99.90;;;;;;5035836;28;20471;-66
2023/06/10 07:26:43;;;;;;;9.00;4.03;;;34.80;99.90;;;;;;5036283;28;20325;-68
2023/06/10 07:29:10;;;;;;;7.25;3.65;;;34.80;99.90;;;;;;5035894;28;20028;-71
2023/06/10 07:31:36;;;;;;;4.63;3.05;;;34.90;99.90;;;;;;5035839;28;20018;-68
2023/06/10 07:34:03;;;;;;;14.55;6.18;;;34.90;99.90;;;;;;5036706;28;20033;-66
2023/06/10 07:36:30;;;;;;;95.05;69.45;;;35.00;99.90;;;;;;5035593;28;20025;-66
2023/06/10 07:38:56;;;;;;;12.02;7.05;;;35.00;99.90;;;;;;5036833;28;20434;-68
2023/06/10 07:41:25;;;;;;;18.67;14.15;;;35.10;99.90;;;;;;5042078;28;20390;-67
2023/06/10 07:43:55;;;;;;;13.25;7.82;;;35.10;99.90;;;;;;5043461;28;20033;-69
2023/06/10 07:46:23;;;;;;;15.00;8.35;;;34.90;99.90;;;;;;5055365;28;20063;-68
2023/06/10 07:48:50;;;;;;;6.22;4.30;;;34.80;99.90;;;;;;5045900;28;20056;-67
2023/06/10 07:51:17;;;;;;;5.78;3.70;;;34.60;99.90;;;;;;5035247;28;20021;-67
2023/06/10 07:53:44;;;;;;;6.40;3.92;;;34.50;99.90;;;;;;5044987;28;20021;-66
2023/06/10 07:56:11;;;;;;;8.75;4.30;;;34.50;99.90;;;;;;5044988;28;20021;-67
2023/06/10 07:58:38;;;;;;;7.82;3.78;;;34.60;99.90;;;;;;5035510;28;20030;-67
2023/06/10 08:01:05;;;;;;;19.85;11.88;;;34.70;99.90;;;;;;5055037;28;20529;-66
2023/06/10 08:03:31;;;;;;;15.10;8.60;;;34.90;99.90;;;;;;5046146;28;20401;-67
2023/06/10 08:05:58;;;;;;;73.97;57.60;;;34.90;99.90;;;;;;5045378;28;20048;-66
2023/06/10 08:08:25;;;;;;;26.42;11.43;;;35.00;99.90;;;;;;5054612;28;20077;-67
2023/06/10 08:10:52;;;;;;;8.63;4.82;;;34.90;99.90;;;;;;5054367;28;20028;-71
2023/06/10 08:13:18;;;;;;;15.07;9.38;;;34.90;99.90;;;;;;5035396;28;20025;-67
2023/06/10 08:15:47;;;;;;;8.70;4.07;;;34.80;99.90;;;;;;5034802;28;20117;-67
2023/06/10 08:18:14;;;;;;;13.30;4.38;;;34.80;99.90;;;;;;5034744;28;20017;-67
2023/06/10 08:20:41;;;;;;;8.20;4.90;;;34.60;99.90;;;;;;5034764;28;20021;-67
2023/06/10 08:23:07;;;;;;;7.35;4.05;;;34.50;99.90;;;;;;5034782;28;20022;-68
2023/06/10 08:25:34;;;;;;;6.10;3.45;;;34.40;99.90;;;;;;5045729;28;20021;-68
2023/06/10 08:28:01;;;;;;;8.90;3.60;;;34.40;99.90;;;;;;5034645;28;20029;-68
2023/06/10 08:30:27;;;;;;;12.95;7.13;;;34.50;99.90;;;;;;5034722;28;20302;-71
2023/06/10 08:32:55;;;;;;;22.13;13.52;;;34.40;99.90;;;;;;5034294;28;20029;-68
2023/06/10 08:35:22;;;;;;;16.58;10.13;;;34.30;99.90;;;;;;5034597;28;20017;-68
2023/06/10 08:37:49;;;;;;;20.15;13.23;;;34.20;99.90;;;;;;5034423;28;20470;-70
2023/06/10 08:40:15;;;;;;;9.48;4.53;;;34.30;99.90;;;;;;5034238;28;20444;-69
2023/06/10 08:42:52;;;;;;;7.65;3.72;;;34.30;99.90;;;;;;5034652;28;20036;-70
2023/06/10 08:45:21;;;;;;;8.35;3.47;;;34.30;99.90;;;;;;5034376;28;20104;-68
2023/06/10 08:47:51;;;;;;;6.90;3.92;;;34.30;99.90;;;;;;5034214;28;20387;-68
2023/06/10 08:50:19;;;;;;;11.57;3.97;;;34.30;99.90;;;;;;5034167;28;20108;-68
2023/06/10 08:52:48;;;;;;;7.63;3.80;;;34.30;99.90;;;;;;5034056;28;20029;-67
2023/06/10 08:55:30;;;;;;;6.57;3.78;;;34.30;99.90;;;;;;5034105;28;20048;-67
2023/06/10 08:57:59;;;;;;;11.77;4.20;;;34.30;99.90;;;;;;5034017;28;20053;-67
2023/06/10 09:00:28;;;;;;;10.20;5.30;;;34.20;99.90;;;;;;5034413;28;20037;-69
2023/06/10 09:02:58;;;;;;;62.08;47.47;;;34.20;99.90;;;;;;5034052;28;20055;-69
2023/06/10 09:05:26;;;;;;;11.40;6.68;;;34.20;99.90;;;;;;5033891;28;20029;-66
2023/06/10 09:07:53;;;;;;;521.28;405.77;;;34.20;99.90;;;;;;5034052;28;20026;-67
2023/06/10 09:10:20;;;;;;;1109.97;742.35;;;34.20;99.90;;;;;;5033114;28;20068;-69
2023/06/10 09:12:47;;;;;;;135.15;87.15;;;34.20;99.90;;;;;;5033668;28;20021;-69
2023/06/10 09:15:17;;;;;;;261.45;139.45;;;34.10;99.90;;;;;;5033922;28;20382;-71
2023/06/10 09:17:44;;;;;;;536.72;335.65;;;34.20;99.90;;;;;;5033922;28;20521;-72
2023/06/10 09:20:12;;;;;;;429.73;236.73;;;34.20;99.90;;;;;;5033700;28;20470;-71
2023/06/10 09:22:39;;;;;;;456.27;279.17;;;34.20;99.90;;;;;;5033865;28;20108;-71
2023/06/10 09:25:08;;;;;;;355.40;205.55;;;34.20;99.90;;;;;;5033764;28;20506;-72
2023/06/10 09:27:54;;;;;;;43.78;23.83;;;34.10;99.90;;;;;;5033603;28;20108;-72
2023/06/10 09:30:27;;;;;;;46.22;24.55;;;34.20;99.90;;;;;;5033535;28;20025;-67
2023/06/10 09:32:57;;;;;;;105.18;48.83;;;34.20;99.90;;;;;;5033453;28;20088;-67
2023/06/10 09:35:25;;;;;;;45.53;19.58;;;34.10;99.90;;;;;;5033574;28;20045;-66
2023/06/10 09:38:05;;;;;;;99.07;43.38;;;34.00;99.90;;;;;;5033579;28;20026;-66
2023/06/10 09:40:32;;;;;;;54.30;24.58;;;34.00;99.90;;;;;;5033402;28;20463;-67
2023/06/10 09:43:00;;;;;;;56.92;27.73;;;34.00;99.90;;;;;;5033382;28;20414;-65
2023/06/10 09:45:31;;;;;;;172.35;67.55;;;34.00;99.90;;;;;;5033551;28;20493;-66
2023/06/10 09:47:58;;;;;;;96.40;35.57;;;33.90;99.90;;;;;;5033683;28;20056;-66
2023/06/10 09:50:25;;;;;;;364.35;120.45;;;33.90;99.90;;;;;;5033311;28;20048;-67
2023/06/10 09:52:52;;;;;;;769.25;304.48;;;33.80;99.90;;;;;;5033018;28;20454;-66
2023/06/10 09:55:19;;;;;;;111.03;41.75;;;33.70;95.90;;;;;;5033222;28;20064;-65
2023/06/10 09:57:50;;;;;;;424.38;156.18;;;33.70;95.90;;;;;;5033431;28;20589;-66
2023/06/10 10:00:17;;;;;;;37.90;19.15;;;33.70;96.20;;;;;;5033179;28;20018;-68
2023/06/10 10:02:47;;;;;;;186.07;80.65;;;33.60;96.20;;;;;;5033203;28;20033;-65
2023/06/10 10:05:15;;;;;;;41.03;24.20;;;33.70;96.60;;;;;;5033264;28;20556;-71
2023/06/10 10:07:43;;;;;;;162.00;82.03;;;33.60;96.50;;;;;;5033138;28;20490;-69
2023/06/10 10:10:11;;;;;;;121.55;48.97;;;33.60;97.10;;;;;;5033181;28;20079;-69
2023/06/10 10:12:39;;;;;;;55.95;24.70;;;33.50;97.30;;;;;;5033145;28;20025;-68
2023/06/10 10:15:09;;;;;;;286.08;107.47;;;33.50;97.60;;;;;;5033116;28;20032;-70
2023/06/10 10:17:45;;;;;;;359.17;128.05;;;33.60;97.80;;;;;;5032977;28;20041;-70
2023/06/10 10:20:14;;;;;;;56.33;27.45;;;33.50;98.00;;;;;;5033220;28;20108;-68
2023/06/10 10:22:43;;;;;;;81.93;35.58;;;33.50;98.10;;;;;;5036698;28;20038;-68
2023/06/10 10:25:16;;;;;;;386.48;154.05;;;33.50;98.40;;;;;;5037937;28;20382;-67
2023/06/10 10:27:55;;;;;;;200.57;88.53;;;33.50;98.70;;;;;;5037313;28;20025;-68
2023/06/10 10:30:22;;;;;;;37.72;20.60;;;33.40;99.10;;;;;;5036647;28;20053;-70
2023/06/10 10:32:52;;;;;;;413.10;153.40;;;33.30;99.10;;;;;;5048977;28;20076;-68
2023/06/10 10:35:23;;;;;;;111.93;42.92;;;33.30;99.40;;;;;;5036233;28;20031;-68
2023/06/10 10:37:53;;;;;;;85.43;42.80;;;;;;;;;;5041893;28;20355;-67
2023/06/10 10:40:22;;;;;;;71.55;34.88;;;33.20;99.80;;;;;;5044361;28;20052;-68
2023/06/10 10:42:50;;;;;;;82.95;52.17;;;33.10;99.90;;;;;;5039188;28;20041;-67
2023/06/10 10:45:17;;;;;;;71.32;38.33;;;33.20;99.90;;;;;;5044503;28;20025;-67
2023/06/10 10:47:46;;;;;;;52.30;27.85;;;33.10;99.90;;;;;;5046382;28;20025;-66
2023/06/10 10:50:16;;;;;;;90.90;48.63;;;33.10;99.90;;;;;;5044816;28;20017;-67
2023/06/10 10:52:48;;;;;;;123.63;80.18;;;33.10;99.90;;;;;;5045072;28;20029;-66
2023/06/10 10:55:14;;;;;;;57.40;37.17;;;33.00;99.90;;;;;;5046102;28;20021;-69
2023/06/10 10:57:41;;;;;;;85.30;58.33;;;33.00;99.90;;;;;;5046955;28;20482;-67
2023/06/10 11:00:10;;;;;;;51.47;31.80;;;33.00;99.90;;;;;;5043894;28;20032;-68
2023/06/10 11:02:43;;;;;;;43.03;25.95;;;33.00;99.90;;;;;;5043477;28;20028;-68
2023/06/10 11:05:11;;;;;;;52.83;30.23;;;33.00;99.90;;;;;;5045711;28;20021;-70
2023/06/10 11:07:38;;;;;;;37.55;23.60;;;33.00;99.90;;;;;;5045808;28;20087;-68
2023/06/10 11:10:09;;;;;;;65.57;45.47;;;32.90;99.90;;;;;;5043992;28;20025;-67
2023/06/10 11:12:40;;;;;;;111.40;88.38;;;32.90;99.90;;;;;;5042893;28;20041;-68
2023/06/10 11:15:08;;;;;;;46.08;33.42;;;32.90;99.90;;;;;;5040347;28;20618;-67
2023/06/10 11:17:34;;;;;;;67.57;51.30;;;32.90;99.90;;;;;;5040870;28;20084;-67
2023/06/10 11:20:01;;;;;;;43.55;29.63;;;32.90;99.90;;;;;;5048870;28;20029;-67
2023/06/10 11:22:28;;;;;;;28.05;20.75;;;32.90;99.90;;;;;;5050221;28;20044;-67
2023/06/10 11:24:55;;;;;;;23.90;17.50;;;32.90;99.90;;;;;;5039031;28;20033;-66
2023/06/10 11:27:24;;;;;;;24.70;16.23;;;32.80;99.90;;;;;;5047459;28;20115;-67
2023/06/10 11:30:13;;;;;;;23.52;15.55;;;32.80;99.90;;;;;;5037861;28;20377;-67
2023/06/10 11:32:43;;;;;;;69.68;50.92;;;32.80;99.90;;;;;;5026757;28;20033;-65
2023/06/10 11:35:10;;;;;;;47.25;30.38;;;32.70;99.90;;;;;;5039161;28;20024;-66
2023/06/10 11:37:40;;;;;;;80.57;56.85;;;32.70;99.90;;;;;;5040251;28;20469;-66
2023/06/10 11:40:08;;;;;;;48.58;31.58;;;32.70;99.90;;;;;;5042417;28;20074;-66
2023/06/10 11:42:40;;;;;;;48.22;29.67;;;32.70;99.90;;;;;;5043663;28;20029;-68
2023/06/10 11:45:08;;;;;;;29.35;19.02;;;32.70;99.90;;;;;;5042950;28;20085;-68
2023/06/10 11:47:35;;;;;;;28.17;17.75;;;32.70;99.90;;;;;;5049326;28;20505;-70
2023/06/10 11:50:02;;;;;;;58.58;27.67;;;32.60;99.90;;;;;;5049318;28;20040;-68
2023/06/10 11:52:33;;;;;;;29.48;17.65;;;32.50;99.90;;;;;;5042392;28;20119;-72
2023/06/10 11:55:00;;;;;;;27.65;15.57;;;32.50;99.90;;;;;;5041209;28;20017;-66
2023/06/10 11:57:27;;;;;;;21.90;16.40;;;32.50;99.90;;;;;;5043832;28;20041;-68
2023/06/10 11:59:54;;;;;;;20.30;15.77;;;32.50;99.90;;;;;;5041502;28;20021;-67
2023/06/10 12:02:22;;;;;;;28.23;16.00;;;32.50;99.90;;;;;;5043629;28;20528;-67
2023/06/10 12:04:48;;;;;;;20.13;15.57;;;32.40;99.90;;;;;;5042027;28;20068;-65
2023/06/10 12:07:22;;;;;;;24.65;15.80;;;32.40;99.90;;;;;;5042996;28;20463;-68
2023/06/10 12:10:00;;;;;;;28.40;15.52;;;32.30;99.90;;;;;;5043585;28;20025;-67
2023/06/10 12:12:26;;;;;;;22.02;15.23;;;32.30;99.90;;;;;;5041878;28;20045;-68
2023/06/10 12:14:54;;;;;;;20.90;14.48;;;32.30;99.90;;;;;;5039602;28;20100;-69
2023/06/10 12:17:23;;;;;;;25.10;15.40;;;32.20;99.90;;;;;;5041781;28;20034;-67
2023/06/10 12:19:51;;;;;;;22.58;15.40;;;32.20;99.90;;;;;;5045387;28;20096;-67
2023/06/10 12:22:19;;;;;;;23.73;15.05;;;32.20;99.90;;;;;;5046698;28;20107;-66
2023/06/10 12:25:06;;;;;;;20.50;14.32;;;32.20;99.90;;;;;;5049017;28;20672;-67
2023/06/10 12:27:34;;;;;;;20.55;14.93;;;32.10;99.90;;;;;;5048946;28;20520;-67
2023/06/10 12:30:05;;;;;;;25.10;15.95;;;32.10;99.90;;;;;;5049440;28;20428;-67
2023/06/10 12:32:36;;;;;;;29.85;16.85;;;32.10;99.90;;;;;;5048695;28;20371;-66
2023/06/10 12:35:07;;;;;;;26.90;16.75;;;32.10;99.90;;;;;;5048734;28;20017;-68
2023/06/10 12:37:34;;;;;;;28.80;17.02;;;32.10;99.90;;;;;;5045326;28;20109;-67